createdAt,value
2022-11-25T00:00:07.617Z,15.01
2022-11-25T00:05:14.695Z,15.09
2022-11-25T00:10:19.301Z,15.15
2022-11-25T00:15:23.021Z,15.22
2022-11-25T00:20:27.420Z,15.24
2022-11-25T00:25:30.843Z,15.28
2022-11-25T00:30:34.328Z,15.34
2022-11-25T00:35:37.684Z,15.38
2022-11-25T00:40:41.150Z,15.37
2022-11-25T00:45:46.286Z,15.10
2022-11-25T00:50:49.680Z,14.72
2022-11-25T00:55:52.812Z,14.49
2022-11-25T01:00:58.875Z,14.46
2022-11-25T01:06:06.813Z,14.53
2022-11-25T01:11:17.844Z,14.61
2022-11-25T01:16:21.958Z,14.67
2022-11-25T01:21:30.868Z,14.83
2022-11-25T01:26:35.623Z,14.89
2022-11-25T01:31:39.458Z,14.84
2022-11-25T01:36:43.087Z,14.79
2022-11-25T01:41:47.228Z,14.82
2022-11-25T01:46:59.185Z,14.89
2022-11-25T01:52:30.924Z,14.93
2022-11-25T01:57:49.002Z,14.93
2022-11-25T02:02:55.113Z,14.88
2022-11-25T02:07:58.996Z,14.84
2022-11-25T02:13:02.560Z,14.81
2022-11-25T02:18:07.175Z,14.74
2022-11-25T02:23:37.156Z,14.67
2022-11-25T02:28:40.863Z,14.62
2022-11-25T02:33:44.354Z,14.56
2022-11-25T02:38:57.061Z,14.55
2022-11-25T02:44:05.345Z,14.60
2022-11-25T02:49:10.607Z,14.65
2022-11-25T02:54:16.500Z,14.62
2022-11-25T02:59:20.488Z,14.59
2022-11-25T03:04:24.812Z,14.52
2022-11-25T03:09:30.467Z,14.46
2022-11-25T03:14:34.790Z,14.52
2022-11-25T03:19:38.392Z,14.59
2022-11-25T03:24:42.824Z,14.60
2022-11-25T03:29:46.295Z,14.66
2022-11-25T03:34:50.225Z,14.64
2022-11-25T03:39:55.060Z,14.63
2022-11-25T03:44:58.770Z,14.64
2022-11-25T03:50:02.654Z,14.62
2022-11-25T03:55:08.023Z,14.63
2022-11-25T04:00:13.524Z,14.62
2022-11-25T04:05:36.175Z,14.55
2022-11-25T04:10:43.303Z,14.53
2022-11-25T04:15:49.232Z,14.50
2022-11-25T04:20:53.665Z,14.46
2022-11-25T04:25:57.346Z,14.42
2022-11-25T04:31:09.782Z,14.41
2022-11-25T04:36:16.529Z,14.40
2022-11-25T04:41:20.039Z,14.39
2022-11-25T04:46:31.476Z,14.45
2022-11-25T04:51:38.397Z,14.44
2022-11-25T04:56:43.627Z,14.48
2022-11-25T05:01:47.231Z,14.61
2022-11-25T05:07:21.898Z,14.75
2022-11-25T05:12:29.665Z,14.81
2022-11-25T05:17:34.802Z,14.82
2022-11-25T05:22:38.556Z,14.86
2022-11-25T05:27:44.110Z,14.99
2022-11-25T05:32:50.352Z,15.03
2022-11-25T05:37:54.918Z,15.12
2022-11-25T05:43:01.399Z,15.23
2022-11-25T05:48:06.629Z,15.53
2022-11-25T05:53:11.148Z,15.58
2022-11-25T05:58:14.537Z,15.60
2022-11-25T06:03:25.955Z,15.59
2022-11-25T06:08:30.426Z,15.33
2022-11-25T06:13:35.079Z,15.28
2022-11-25T06:18:39.186Z,15.24
2022-11-25T06:23:45.586Z,15.15
2022-11-25T06:28:55.977Z,15.26
2022-11-25T06:34:00.473Z,15.51
2022-11-25T06:39:04.055Z,15.60
2022-11-25T06:44:07.485Z,15.76
2022-11-25T06:49:11.305Z,15.97
2022-11-25T06:54:14.680Z,16.07
2022-11-25T06:59:18.728Z,16.29
2022-11-25T07:04:22.114Z,16.45
2022-11-25T07:09:25.516Z,16.78
2022-11-25T07:14:29.045Z,17.04
2022-11-25T07:19:37.341Z,17.00
2022-11-25T07:24:40.803Z,16.82
2022-11-25T07:30:03.180Z,16.53
2022-11-25T07:35:07.719Z,16.30
2022-11-25T07:40:14.373Z,16.16
2022-11-25T07:45:20.674Z,15.99
2022-11-25T07:50:29.289Z,15.05
2022-11-25T07:55:33.178Z,14.18
2022-11-25T08:00:37.292Z,13.40
2022-11-25T08:05:40.635Z,13.04
2022-11-25T08:10:44.238Z,12.91
2022-11-25T08:15:47.791Z,12.73
2022-11-25T08:20:51.900Z,12.70
2022-11-25T08:25:55.751Z,12.79
2022-11-25T08:31:07.894Z,12.79
2022-11-25T08:36:11.845Z,12.82
2022-11-25T08:41:19.283Z,12.92
2022-11-25T08:46:25.744Z,13.01
2022-11-25T08:51:33.041Z,13.20
2022-11-25T08:56:36.859Z,13.33
2022-11-25T09:01:43.389Z,13.49
2022-11-25T09:06:47.260Z,13.67
2022-11-25T09:11:50.637Z,13.89
2022-11-25T09:16:55.476Z,14.07
2022-11-25T09:22:00.066Z,14.23
2022-11-25T09:27:04.600Z,14.30
2022-11-25T09:32:08.903Z,14.44
2022-11-25T09:37:12.498Z,14.72
2022-11-25T09:42:25.062Z,15.21
2022-11-25T09:47:47.012Z,15.51
2022-11-25T09:53:27.978Z,15.72
2022-11-25T09:58:48.916Z,15.74
2022-11-25T10:04:13.268Z,15.77
2022-11-25T10:09:22.779Z,15.91
2022-11-25T10:14:51.875Z,16.05
2022-11-25T10:20:20.655Z,16.40
2022-11-25T10:25:27.903Z,16.66
2022-11-25T10:30:39.301Z,16.93
2022-11-25T10:36:04.857Z,16.86
2022-11-25T10:41:18.044Z,15.89
2022-11-25T10:47:12.425Z,14.30
2022-11-25T10:52:13.277Z,13.99
2022-11-25T10:57:19.925Z,13.95
2022-11-25T11:02:29.457Z,13.98
2022-11-25T11:07:36.489Z,14.09
2022-11-25T11:12:59.496Z,14.21
2022-11-25T11:18:38.235Z,14.32
2022-11-25T11:23:51.541Z,14.55
2022-11-25T11:28:59.750Z,14.71
2022-11-25T11:34:42.001Z,14.90
2022-11-25T11:40:11.510Z,14.99
2022-11-25T11:45:25.110Z,15.20
2022-11-25T11:50:45.172Z,15.42
2022-11-25T11:56:41.343Z,15.43
2022-11-25T12:02:16.187Z,15.35
2022-11-25T12:07:41.108Z,15.56
2022-11-25T12:13:03.017Z,15.62
2022-11-25T12:18:36.819Z,15.61
2022-11-25T12:24:38.268Z,15.76
2022-11-25T12:30:03.250Z,15.73
2022-11-25T12:35:10.747Z,15.61
2022-11-25T12:40:19.327Z,15.51
2022-11-25T12:45:25.267Z,15.46
2022-11-25T12:50:42.183Z,15.42
2022-11-25T12:55:45.847Z,15.26
2022-11-25T13:01:05.903Z,14.57
2022-11-25T13:06:33.527Z,14.53
2022-11-25T13:12:05.111Z,14.74
2022-11-25T13:17:12.565Z,14.94
2022-11-25T13:22:22.691Z,14.97
2022-11-25T13:27:52.968Z,14.97
2022-11-25T13:32:57.968Z,14.97
2022-11-25T13:38:35.288Z,14.84
2022-11-25T13:44:05.374Z,14.82
2022-11-25T13:49:40.509Z,14.90
2022-11-25T13:54:49.855Z,14.90
2022-11-25T14:00:20.948Z,14.85
2022-11-25T14:05:43.061Z,14.82
2022-11-25T14:10:51.386Z,14.72
2022-11-25T14:17:22.019Z,14.63
2022-11-25T14:25:20.974Z,14.69
2022-11-25T14:29:20.417Z,14.75
2022-11-25T14:34:41.430Z,14.76
2022-11-25T14:59:56.790Z,14.83
2022-11-25T15:05:21.502Z,14.90
2022-11-25T15:10:38.375Z,15.03
2022-11-25T15:15:45.715Z,15.09
2022-11-25T15:20:53.549Z,15.16
2022-11-25T15:25:56.781Z,15.23
2022-11-25T15:31:01.854Z,15.30
2022-11-25T15:36:05.931Z,15.37
2022-11-25T15:41:19.596Z,15.45
2022-11-25T15:46:25.648Z,15.63
2022-11-25T15:51:54.146Z,15.74
2022-11-25T15:57:11.994Z,15.76
2022-11-25T16:02:44.550Z,15.81
2022-11-25T16:07:50.950Z,15.84
2022-11-25T16:13:21.527Z,15.82
2022-11-25T16:18:53.580Z,15.87
2022-11-25T16:24:05.733Z,15.93
2022-11-25T16:29:19.180Z,15.99
2022-11-25T16:34:22.928Z,16.05
2022-11-25T16:39:26.208Z,16.10
2022-11-25T16:44:30.060Z,16.14
2022-11-25T16:49:33.515Z,16.19
2022-11-25T16:54:38.309Z,16.22
2022-11-25T16:59:43.418Z,16.26
2022-11-25T17:04:47.503Z,16.35
2022-11-25T17:09:53.658Z,16.37
2022-11-25T17:15:00.330Z,16.37
2022-11-25T17:20:04.886Z,16.38
2022-11-25T17:25:10.024Z,16.46
2022-11-25T17:30:23.507Z,16.50
2022-11-25T17:35:27.994Z,16.45
2022-11-25T17:40:31.870Z,16.38
2022-11-25T17:45:36.160Z,16.36
2022-11-25T17:50:39.925Z,16.44
2022-11-25T17:55:43.123Z,16.50
2022-11-25T18:00:46.686Z,16.52
2022-11-25T18:05:51.376Z,16.52
2022-11-25T18:10:55.077Z,16.54
2022-11-25T18:15:58.405Z,16.52
2022-11-25T18:21:02.000Z,16.51
2022-11-25T18:26:05.755Z,16.55
2022-11-25T18:31:11.371Z,16.57
2022-11-25T18:36:14.994Z,16.59
2022-11-25T18:41:26.165Z,16.48
2022-11-25T18:46:37.145Z,16.15
2022-11-25T18:51:41.632Z,15.91
2022-11-25T18:56:51.034Z,15.76
2022-11-25T19:01:55.197Z,15.69
2022-11-25T19:07:00.013Z,15.74
2022-11-25T19:12:04.099Z,15.79
2022-11-25T19:17:18.230Z,15.81
2022-11-25T19:22:23.187Z,15.85
2022-11-25T19:27:26.957Z,15.90
2022-11-25T19:32:33.504Z,15.74
2022-11-25T19:37:36.748Z,15.51
2022-11-25T19:42:39.878Z,15.55
2022-11-25T19:47:47.343Z,15.59
2022-11-25T19:52:51.513Z,15.61
2022-11-25T19:57:55.308Z,15.65
2022-11-25T20:02:59.625Z,15.67
2022-11-25T20:08:03.295Z,15.69
2022-11-25T20:13:07.379Z,15.69
2022-11-25T20:18:18.114Z,15.76
2022-11-25T20:23:36.304Z,15.79
2022-11-25T20:28:42.026Z,15.25
2022-11-25T20:33:46.473Z,14.11
2022-11-25T20:38:52.801Z,13.57
2022-11-25T20:43:58.012Z,13.46
2022-11-25T20:49:02.860Z,13.53
2022-11-25T20:54:06.988Z,13.60
2022-11-25T20:59:22.168Z,13.72
2022-11-25T21:04:25.463Z,13.91
2022-11-25T21:09:31.592Z,14.13
2022-11-25T21:14:35.412Z,14.39
2022-11-25T21:19:39.021Z,14.63
2022-11-25T21:24:42.262Z,14.82
2022-11-25T21:29:46.400Z,14.97
2022-11-25T21:34:50.554Z,15.15
2022-11-25T21:39:54.114Z,15.30
2022-11-25T21:44:59.805Z,15.48
2022-11-25T21:50:12.891Z,15.62
2022-11-25T21:55:17.112Z,15.73
2022-11-25T22:00:25.542Z,15.78
2022-11-25T22:05:29.076Z,15.82
2022-11-25T22:10:32.943Z,15.88
2022-11-25T22:15:36.428Z,15.93
2022-11-25T22:20:40.563Z,15.91
2022-11-25T22:25:44.618Z,15.56
2022-11-25T22:30:53.795Z,15.10
2022-11-25T22:35:58.781Z,14.59
2022-11-25T22:41:04.187Z,14.22
2022-11-25T22:46:07.584Z,13.97
2022-11-25T22:51:21.676Z,13.84
2022-11-25T22:56:25.602Z,13.79
2022-11-25T23:01:30.103Z,13.82
2022-11-25T23:06:33.174Z,13.86
2022-11-25T23:11:40.004Z,13.83
2022-11-25T23:16:43.990Z,13.73
2022-11-25T23:21:47.498Z,13.72
2022-11-25T23:26:50.793Z,13.77
2022-11-25T23:31:54.016Z,13.87
2022-11-25T23:36:58.513Z,13.97
2022-11-25T23:42:01.854Z,14.10
2022-11-25T23:47:05.862Z,14.20
2022-11-25T23:52:15.042Z,14.38
2022-11-25T23:57:19.881Z,14.54
